Latest Weather Observations for Albion Park

IDN60801

Issued at 1:03 pm EST Sunday 24 May 2015 (issued every 30 minutes, with the page automatically refreshed every 10 minutes)

About weather observations | Map of weather stations | Latest weather observations for NSW | Other Formats
Station Details ID: 068241 Name: WOLLONGONG AIRPORT Lat: -34.56 Lon: 150.79 Height: 8.0 m
Data from the previous 72 hours. | See also: Recent months at Albion Park
Date/Time
EST
Temp
°C
App
Temp
°C
Dew
Point
Rel
Hum
%
Delta-T
°C
Wind Press
QNH
hPa
Press
MSL
hPa
Rain
since 9 am
mm
Dir
 
Spd
km/h
Gust
km/h
Spd
kts
Gust
kts
24/01:00pm 18.1 15.3 8.4 53 5.0 NE 13 15 7 8 1030.8 1030.8 0.0
24/12:30pm 17.9 15.5 7.0 49 5.4 E 9 13 5 7 1031.1 1031.1 0.0
24/12:00pm 18.0 16.2 8.0 52 5.1 NNE 7 15 4 8 1031.5 1031.5 0.0
24/11:30am 17.4 15.8 8.0 54 4.8 S 6 11 3 6 1031.9 1031.9 0.0
24/11:00am 16.9 15.1 8.1 56 4.4 S 7 11 4 6 1032.1 1032.1 0.0
24/10:30am 16.5 15.2 7.7 56 4.4 SW 4 13 2 7 1032.4 1032.4 0.0
24/10:00am 16.6 16.8 10.5 67 3.2 CALM 0 0 0 0 1032.6 1032.6 0.0
24/09:00am 11.7 12.1 11.4 98 0.2 CALM 0 0 0 0 1032.4 1032.4 0.0
24/08:30am 9.6 9.5 9.5 99 0.0 CALM 0 0 0 0 1032.3 1032.3 0.0
24/08:00am 8.3 6.6 8.2 99 0.0 SW 7 9 4 5 1031.9 1031.9 0.0
24/07:30am 7.3 5.3 7.0 98 0.1 WSW 7 11 4 6 1031.4 1031.4 0.0
24/07:00am 7.2 4.8 6.9 98 0.1 WSW 9 11 5 6 1031.0 1031.0 0.0
24/06:30am 7.2 5.1 6.8 97 0.2 WSW 7 7 4 4 1030.9 1030.9 0.0
24/05:30am 8.3 6.6 7.4 94 0.4 W 6 9 3 5 1030.3 1030.3 0.0
24/05:00am 8.3 6.3 7.2 93 0.5 SW 7 9 4 5 1030.1 1030.1 0.0
24/04:30am 8.5 5.1 7.7 95 0.4 WSW 15 19 8 10 1030.0 1030.0 0.0
24/04:00am 7.6 4.8 6.9 95 0.3 WSW 11 13 6 7 1029.9 1029.9 0.0
24/03:30am 7.5 4.7 6.9 96 0.3 WSW 11 11 6 6 1029.7 1029.7 0.0
24/03:00am 7.3 4.1 6.9 97 0.2 WSW 13 15 7 8 1029.8 1029.8 0.0
24/02:30am 7.1 4.7 7.0 99 0.0 W 9 11 5 6 1029.8 1029.8 0.0
24/02:00am 6.6 4.0 6.3 98 0.1 W 9 9 5 5 1030.0 1030.0 0.0
24/01:30am 6.5 3.9 5.9 96 0.3 W 9 11 5 6 1029.9 1029.9 0.0
24/01:00am 7.3 4.4 6.7 96 0.3 W 11 13 6 7 1029.9 1029.9 0.0
24/12:30am 6.8 4.6 6.2 96 0.3 WSW 7 11 4 6 1029.9 1029.9 0.0
24/12:00am 7.3 4.4 6.7 96 0.3 WSW 11 13 6 7 1029.9 1029.9 0.0
 
Date/Time
EST
Temp
°C
App
Temp
°C
Dew
Point
Rel
Hum
%
Delta-T
°C
Wind Press
QNH
hPa
Press
MSL
hPa
Rain
since 9 am
mm
Dir
 
Spd
km/h
Gust
km/h
Spd
kts
Gust
kts
23/11:30pm 7.6 5.4 6.1 90 0.7 SW 7 9 4 5 1030.0 1030.0 0.0
23/11:00pm 8.6 4.9 7.8 95 0.4 WSW 17 20 9 11 1029.9 1029.9 0.0
23/10:30pm 7.8 4.6 6.9 94 0.4 W 13 15 7 8 1029.9 1029.9 0.0
23/10:00pm 8.3 5.6 7.2 93 0.5 W 11 15 6 8 1030.0 1030.0 0.0
23/09:30pm 8.2 5.8 7.0 92 0.6 W 9 13 5 7 1030.1 1030.1 0.0
23/09:00pm 8.4 5.7 7.5 94 0.4 W 11 13 6 7 1030.2 1030.2 0.0
23/08:30pm 8.8 6.1 7.4 91 0.7 WSW 11 13 6 7 1030.3 1030.3 0.0
23/08:00pm 9.2 7.0 7.8 91 0.7 W 9 13 5 7 1030.2 1030.2 0.0
23/07:30pm 9.2 7.0 8.0 92 0.6 WSW 9 15 5 8 1030.1 1030.1 0.0
23/07:00pm 9.4 6.2 8.5 94 0.4 W 15 19 8 10 1030.0 1030.0 0.0
23/06:30pm 10.0 8.0 8.6 91 0.7 W 9 13 5 7 1029.8 1029.8 0.0
23/05:30pm 12.4 9.9 8.3 76 2.0 SSW 11 13 6 7 1029.3 1029.3 0.0
23/05:00pm 13.8 11.0 8.6 71 2.6 SSE 13 20 7 11 1029.1 1029.1 0.0
23/04:30pm 14.6 11.7 8.3 66 3.2 SSE 13 20 7 11 1029.0 1029.0 0.0
23/04:00pm 15.5 12.5 9.2 66 3.2 SSE 15 24 8 13 1028.9 1028.9 0.0
23/03:30pm 16.0 13.2 8.7 62 3.7 SE 13 19 7 10 1028.6 1028.6 0.0
23/03:00pm 16.6 14.2 8.6 59 4.1 S 11 17 6 9 1028.4 1028.4 0.0
23/02:30pm 16.6 14.0 7.8 56 4.4 SSE 11 17 6 9 1028.3 1028.3 0.0
23/02:00pm 16.5 12.7 7.4 55 4.5 SSE 17 20 9 11 1028.4 1028.4 0.0
23/01:30pm 16.8 13.7 7.2 53 4.8 WSW 13 19 7 10 1028.6 1028.6 0.0
23/01:00pm 16.4 13.1 7.9 57 4.3 SSW 15 22 8 12 1028.6 1028.6 0.0
23/12:30pm 16.7 12.7 8.1 57 4.4 SW 19 26 10 14 1028.7 1028.7 0.0
23/12:00pm 16.2 11.9 7.7 57 4.2 SW 20 28 11 15 1028.9 1028.9 0.0
23/11:30am 16.2 11.9 7.7 57 4.3 SSW 20 30 11 16 1029.4 1029.4 0.0
23/11:00am 15.8 11.6 8.1 60 3.8 SSW 20 26 11 14 1029.7 1029.7 0.0
23/10:30am 15.6 11.9 7.9 60 3.9 SW 17 28 9 15 1029.9 1029.9 0.0
23/10:00am 15.1 11.3 7.4 60 3.8 SW 17 26 9 14 1029.9 1029.9 0.0
23/09:30am 15.2 10.4 7.5 60 3.8 SW 22 30 12 16 1029.6 1029.6 0.0
23/09:00am 14.1 10.0 7.9 66 3.1 WSW 19 24 10 13 1029.4 1029.4 9.8
23/08:30am 12.9 7.6 6.7 66 3.0 WSW 24 32 13 17 1029.2 1029.2 9.8
23/08:00am 12.0 8.0 6.5 69 2.6 WSW 17 22 9 12 1029.1 1029.1 9.8
23/07:30am 11.3 6.8 6.0 70 2.5 W 19 28 10 15 1028.8 1028.8 9.8
23/07:00am 10.9 6.4 5.9 71 2.3 W 19 26 10 14 1028.5 1028.5 9.8
23/06:30am 10.9 6.7 5.9 71 2.3 WSW 17 24 9 13 1028.3 1028.3 9.8
23/06:00am 11.6 6.9 6.1 69 2.6 WSW 20 32 11 17 1028.0 1028.0 9.8
23/05:30am 11.6 7.1 6.1 69 2.6 WSW 19 28 10 15 1027.6 1027.6 9.8
23/05:00am 11.5 7.0 6.0 69 2.5 SW 19 28 10 15 1027.5 1027.5 9.8
23/04:30am 11.5 6.8 6.2 70 2.5 WSW 20 28 11 15 1027.5 1027.5 9.8
23/04:00am 12.6 6.9 6.6 67 2.8 WSW 26 37 14 20 1027.3 1027.3 9.8
23/03:30am 12.9 8.5 6.7 66 3.0 SW 19 35 10 19 1027.3 1027.3 9.8
23/03:00am 12.8 8.0 7.3 69 2.6 SW 22 32 12 17 1027.3 1027.3 9.8
23/02:43am 13.1 6.8 7.3 68 2.8 SW 30 48 16 26 1027.3 1027.3 9.8
23/02:30am 13.2 7.3 7.4 68 2.8 SW 28 43 15 23 1027.4 1027.4 9.8
23/02:06am 13.0 7.1 7.7 70 2.6 SW 28 48 15 26 1027.2 1027.2 9.8
23/02:00am 12.9 7.5 7.8 71 2.5 SW 26 43 14 23 1027.3 1027.3 9.8
23/01:30am 12.9 8.8 7.8 71 2.5 SW 19 32 10 17 1027.2 1027.2 9.8
23/01:00am 13.0 7.7 8.3 73 2.3 SW 26 39 14 21 1027.1 1027.1 9.8
23/12:30am 12.9 7.6 8.6 75 2.1 SW 26 43 14 23 1027.0 1027.0 9.8
23/12:12am 12.6 7.9 9.4 81 1.6 SSW 24 37 13 20 1027.1 1027.1 9.8
23/12:00am 12.4 7.0 9.4 82 1.5 SSW 28 39 15 21 1027.1 1027.1 9.8
 
Date/Time
EST
Temp
°C
App
Temp
°C
Dew
Point
Rel
Hum
%
Delta-T
°C
Wind Press
QNH
hPa
Press
MSL
hPa
Rain
since 9 am
mm
Dir
 
Spd
km/h
Gust
km/h
Spd
kts
Gust
kts
22/11:52pm 12.4 7.0 9.4 82 1.5 SW 28 46 15 25 1027.2 1027.2 9.8
22/11:45pm 12.1 8.3 9.8 86 1.2 SSW 20 32 11 17 1027.2 1027.2 9.8
22/11:39pm 12.2 8.0 9.9 86 1.2 SSW 22 32 12 17 1027.2 1027.2 9.8
22/11:30pm 12.3 7.8 10.2 87 1.1 SSW 24 33 13 18 1027.3 1027.3 9.8
22/11:06pm 12.4 9.1 10.8 90 0.8 SSW 19 28 10 15 1027.1 1027.1 9.8
22/11:00pm 12.3 8.8 10.9 91 0.7 SSW 20 33 11 18 1027.0 1027.0 9.8
22/10:50pm 12.4 8.6 11.0 91 0.7 SSW 22 35 12 19 1027.0 1027.0 9.8
22/10:38pm 12.7 9.8 10.9 89 0.9 SSW 17 30 9 16 1027.1 1027.1 9.4
22/10:30pm 12.8 8.9 10.9 88 1.0 SSW 22 32 12 17 1027.0 1027.0 9.4
22/10:00pm 13.0 9.1 10.9 87 1.1 SSW 22 33 12 18 1026.9 1026.9 9.4
22/09:30pm 13.1 9.8 10.8 86 1.2 SSW 19 28 10 15 1026.5 1026.5 9.4
22/09:00pm 13.3 9.9 10.5 83 1.4 SSW 19 28 10 15 1026.2 1026.2 9.4
22/08:30pm 13.4 9.4 10.4 82 1.6 SSW 22 32 12 17 1026.1 1026.1 9.4
22/08:00pm 13.2 9.3 10.7 85 1.3 SSW 22 35 12 19 1026.0 1026.0 9.4
22/07:30pm 13.1 8.7 10.5 84 1.4 SSW 24 33 13 18 1025.7 1025.7 9.4
22/07:00pm 13.8 7.7 9.8 77 2.0 SSW 32 57 17 31 1025.4 1025.4 9.4
22/06:54pm 13.5 8.3 10.3 81 1.7 SSW 28 46 15 25 1025.3 1025.3 9.4
22/06:30pm 13.4 9.4 10.4 82 1.6 SSW 22 35 12 19 1024.9 1024.9 9.4
22/06:00pm 13.2 10.0 11.4 89 0.9 SSW 19 28 10 15 1024.8 1024.8 9.4
22/05:30pm 13.5 10.8 10.5 82 1.6 S 15 28 8 15 1024.2 1024.2 9.2
22/05:00pm 13.2 9.3 10.7 85 1.3 S 22 35 12 19 1023.7 1023.7 9.2
22/04:30pm 13.2 9.6 10.7 85 1.3 S 20 32 11 17 1023.4 1023.4 9.0
22/04:18pm 13.2 7.7 10.6 84 1.4 S 30 50 16 27 1023.5 1023.5 9.0
22/04:17pm 13.1 8.0 10.6 85 1.3 S 28 50 15 27 1023.5 1023.5 9.0
22/04:06pm 13.2 10.5 11.8 91 0.7 SSE 17 33 9 18 1023.3 1023.3 9.0
22/04:00pm 13.3 11.0 11.7 90 0.8 SSE 15 32 8 17 1023.3 1023.3 9.0
22/03:36pm 13.2 7.9 11.3 88 1.0 S 30 43 16 23 1022.7 1022.7 9.0
22/03:34pm 13.1 7.2 11.2 88 1.0 S 33 48 18 26 1022.6 1022.6 9.0
22/03:30pm 13.0 6.8 11.4 90 0.8 S 35 48 19 26 1022.6 1022.6 9.0
22/03:25pm 12.9 7.7 11.5 91 0.7 S 30 48 16 26 1022.8 1022.8 9.0
22/03:14pm 13.2 9.6 11.8 91 0.7 SSE 22 35 12 19 1022.6 1022.6 8.6
22/03:13pm 13.2 9.6 11.8 91 0.7 SSE 22 37 12 20 1022.6 1022.6 8.6
22/03:00pm 13.6 9.5 11.5 87 1.1 S 24 39 13 21 1022.4 1022.4 8.4
22/02:30pm 13.7 8.2 11.9 89 1.0 S 32 44 17 24 1022.0 1022.0 8.2
22/02:00pm 14.5 9.3 11.6 83 1.5 S 30 48 16 26 1021.7 1021.7 7.8
22/01:30pm 14.4 9.3 11.9 85 1.3 S 30 50 16 27 1021.6 1021.6 7.8
22/01:04pm 13.6 6.6 11.1 85 1.3 S 39 57 21 31 1021.7 1021.7 7.8
22/01:00pm 13.8 6.4 11.1 84 1.4 SSW 41 59 22 32 1021.7 1021.7 7.8
22/12:49pm 13.4 5.5 10.9 85 1.3 SSW 43 61 23 33 1021.6 1021.6 7.8
22/12:38pm 14.1 8.6 11.8 86 1.2 SSW 32 50 17 27 1021.3 1021.3 7.8
22/12:30pm 13.9 8.8 11.8 87 1.1 SSW 30 43 16 23 1021.2 1021.2 7.8
22/12:17pm 13.7 9.1 12.3 91 0.8 S 28 43 15 23 1021.2 1021.2 7.8
22/12:02pm 13.3 6.8 11.7 90 0.9 S 37 56 20 30 1021.4 1021.4 7.6
22/12:00pm 13.5 6.6 11.7 89 1.0 S 39 56 21 30 1021.4 1021.4 7.6
22/11:54am 13.9 7.0 11.6 86 1.2 SSW 39 56 21 30 1021.3 1021.3 7.6
22/11:30am 13.8 7.9 11.3 85 1.3 SSW 33 56 18 30 1021.1 1021.1 7.4
22/11:18am 14.1 8.0 11.8 86 1.2 SSW 35 61 19 33 1020.9 1020.9 7.4
22/11:00am 13.5 7.5 12.2 92 0.7 S 35 56 19 30 1020.9 1020.9 7.2
22/10:54am 13.9 8.8 13.0 94 0.5 S 32 54 17 29 1020.8 1020.8 7.0
22/10:51am 13.8 8.6 12.7 93 0.6 S 32 54 17 29 1020.6 1020.6 6.6
22/10:41am 13.9 10.2 12.8 93 0.6 SSE 24 33 13 18 1020.7 1020.7 5.4
22/10:36am 14.2 10.3 13.2 94 0.6 S 26 37 14 20 1020.5 1020.5 5.0
22/10:30am 14.5 9.9 13.4 93 0.6 S 30 50 16 27 1020.4 1020.4 4.4
22/10:13am 14.2 8.5 12.9 92 0.7 S 35 54 19 29 1020.1 1020.1 4.0
22/10:09am 14.1 8.0 13.1 94 0.6 S 37 52 20 28 1020.1 1020.1 4.0
22/10:01am 14.3 7.4 12.9 91 0.8 S 41 63 22 34 1020.1 1020.1 3.6
22/10:00am 14.3 7.4 12.9 91 0.8 S 41 63 22 34 1020.1 1020.1 3.6
22/09:49am 14.9 11.0 14.3 96 0.3 SSE 28 52 15 28 1019.7 1019.7 3.6
22/09:41am 14.8 11.3 14.6 99 0.1 SSE 26 43 14 23 1019.5 1019.5 3.4
22/09:40am 14.8 11.3 14.6 99 0.1 SSE 26 43 14 23 1019.5 1019.5 3.4
22/09:30am 14.4 11.6 14.2 99 0.1 SSE 22 41 12 22 1019.3 1019.3 3.4
22/09:03am 13.8 8.6 13.3 97 0.3 S 33 59 18 32 1019.3 1019.3 1.4
22/09:00am 14.2 9.2 13.4 95 0.4 S 32 59 17 32 1019.2 1019.2 16.6
22/08:52am 14.4 10.1 13.3 93 0.6 S 28 39 15 21 1018.9 1018.9 14.2
22/08:35am 14.6 11.0 13.1 91 0.8 S 24 35 13 19 1018.4 1018.4 13.0
22/08:30am 14.3 11.5 13.2 93 0.6 S 20 35 11 19 1018.5 1018.5 13.0
22/08:00am 13.9 11.0 13.0 94 0.5 SSW 20 35 11 19 1018.3 1018.3 10.4
22/07:42am 13.9 11.4 13.6 98 0.2 S 19 24 10 13 1018.1 1018.1 8.6
22/07:31am 13.9 12.6 13.6 98 0.2 S 13 20 7 11 1018.1 1018.1 8.2
22/07:30am 13.9 12.6 13.6 98 0.2 S 13 20 7 11 1018.1 1018.1 8.2
22/07:00am 14.0 11.2 13.2 95 0.4 SSE 20 32 11 17 1017.9 1017.9 5.0
22/06:53am 14.1 10.5 13.1 94 0.6 S 24 32 13 17 1017.8 1017.8 3.8
22/06:40am 14.2 10.1 12.8 91 0.8 S 26 35 14 19 1017.3 1017.3 3.2
22/06:30am 14.3 10.1 12.3 88 1.1 SSW 26 39 14 21 1017.2 1017.2 3.0
22/06:11am 14.1 9.4 12.0 87 1.1 SSW 28 46 15 25 1016.8 1016.8 3.0
22/06:00am 14.0 8.5 12.0 88 1.1 SSW 32 46 17 25 1016.8 1016.8 3.0
22/05:39am 14.0 9.1 11.3 84 1.4 SSW 28 46 15 25 1016.7 1016.7 3.0
22/05:30am 13.9 8.6 11.2 84 1.4 SW 30 43 16 23 1016.5 1016.5 3.0
22/05:07am 13.9 9.0 11.2 84 1.4 SW 28 46 15 25 1016.5 1016.5 3.0
22/05:04am 14.1 9.2 11.3 83 1.5 SW 28 46 15 25 1016.5 1016.5 3.0
22/05:00am 14.2 10.4 11.2 82 1.6 SW 22 39 12 21 1016.5 1016.5 3.0
22/04:46am 13.9 9.0 11.4 85 1.3 SW 28 46 15 25 1016.6 1016.6 3.0
22/04:41am 13.8 9.3 11.5 86 1.2 SW 26 41 14 22 1016.5 1016.5 3.0
22/04:30am 13.5 9.4 11.6 88 1.0 SW 24 39 13 21 1016.4 1016.4 3.0
22/04:00am 13.7 9.3 11.7 88 1.1 SSW 26 37 14 20 1016.6 1016.6 2.8
22/03:30am 13.8 8.1 11.8 88 1.1 SSW 33 46 18 25 1016.4 1016.4 2.0
22/03:02am 14.2 9.3 11.4 83 1.5 SSW 28 46 15 25 1016.7 1016.7 1.0
22/03:00am 14.3 9.8 11.5 83 1.5 SSW 26 46 14 25 1016.7 1016.7 1.0
22/02:31am 14.7 9.3 10.9 78 2.0 SSW 30 54 16 29 1016.6 1016.6 1.0
22/02:30am 14.6 9.6 10.8 78 2.0 SSW 28 44 15 24 1016.6 1016.6 1.0
22/02:00am 14.9 8.2 10.9 77 2.1 SSW 37 56 20 30 1016.7 1016.7 1.0
22/01:48am 14.8 9.0 10.8 77 2.1 SSW 32 50 17 27 1017.0 1017.0 1.0
22/01:30am 14.7 9.2 10.7 77 2.1 SSW 30 44 16 24 1017.1 1017.1 1.0
22/01:21am 14.7 9.7 10.9 78 2.0 SW 28 48 15 26 1017.1 1017.1 1.0
22/01:00am 14.2 9.8 10.4 78 2.0 SW 24 41 13 22 1017.3 1017.3 1.0
22/12:30am 14.6 9.7 9.8 73 2.5 SSW 26 44 14 24 1017.7 1017.7 1.0
22/12:11am 14.7 9.6 10.5 76 2.2 SSW 28 46 15 25 1017.6 1017.6 1.0
22/12:00am 14.8 9.4 10.8 77 2.1 SSW 30 46 16 25 1017.6 1017.6 1.0
 
Date/Time
EST
Temp
°C
App
Temp
°C
Dew
Point
Rel
Hum
%
Delta-T
°C
Wind Press
QNH
hPa
Press
MSL
hPa
Rain
since 9 am
mm
Dir
 
Spd
km/h
Gust
km/h
Spd
kts
Gust
kts
21/11:55pm 14.7 9.7 10.9 78 2.0 SSW 28 46 15 25 1017.6 1017.6 1.0
21/11:30pm 14.8 10.5 10.6 76 2.2 SW 24 39 13 21 1017.9 1017.9 1.0
21/11:02pm 15.0 9.9 10.6 75 2.3 SSW 28 46 15 25 1018.1 1018.1 1.0
21/11:00pm 15.0 10.3 10.6 75 2.3 SSW 26 43 14 23 1018.1 1018.1 1.0
21/10:41pm 15.4 10.4 10.8 74 2.4 SSW 28 46 15 25 1017.9 1017.9 1.0
21/10:30pm 15.2 11.7 10.8 75 2.3 SW 20 33 11 18 1017.9 1017.9 1.0
21/10:00pm 15.2 11.1 11.4 78 2.0 SW 24 41 13 22 1018.0 1018.0 1.0
21/09:30pm 14.9 11.7 11.3 79 1.9 SW 19 32 10 17 1018.4 1018.4 1.0
21/09:00pm 15.4 12.6 11.4 77 2.1 SW 17 30 9 16 1018.5 1018.5 1.0
21/08:30pm 15.4 12.1 11.0 75 2.3 SW 19 33 10 18 1018.5 1018.5 1.0
21/08:00pm 15.2 11.6 12.0 81 1.7 SSW 22 33 12 18 1018.4 1018.4 1.0
21/07:30pm 15.4 13.3 12.5 83 1.6 SSW 15 24 8 13 1018.2 1018.2 1.0
21/07:00pm 14.5 13.7 13.0 91 0.8 SW 9 15 5 8 1018.5 1018.5 1.0
21/06:30pm 15.2 13.4 13.4 89 1.0 SW 15 24 8 13 1018.4 1018.4 1.0
21/06:00pm 15.3 12.7 13.8 91 0.8 S 20 30 11 16 1018.1 1018.1 0.6
21/05:47pm 15.3 12.0 14.0 92 0.7 S 24 32 13 17 1018.2 1018.2 0.2
21/05:35pm 15.4 12.7 13.6 89 1.0 S 20 32 11 17 1018.0 1018.0 0.0
21/05:30pm 15.9 13.0 13.9 88 1.1 S 22 32 12 17 1018.0 1018.0 0.0
21/05:00pm 16.8 14.4 12.7 77 2.3 SSE 17 24 9 13 1017.7 1017.7 0.0
21/04:30pm 18.1 14.9 11.4 65 3.7 S 19 26 10 14 1017.4 1017.4 0.0
21/04:00pm 19.2 17.0 10.7 58 4.6 SSW 13 19 7 10 1017.4 1017.4 0.0
21/03:30pm 19.6 16.5 10.3 55 5.0 SSW 17 24 9 13 1017.2 1017.2 0.0
21/03:00pm 19.9 16.1 9.2 50 5.6 S 19 24 10 13 1017.0 1017.0 0.0
21/02:30pm 20.3 15.7 8.3 46 6.2 S 22 28 12 15 1016.9 1016.9 0.0
21/02:00pm 20.5 16.5 9.1 48 6.0 SSW 20 28 11 15 1016.8 1016.8 0.0
21/01:30pm 20.5 16.9 10.0 51 5.6 S 19 28 10 15 1017.1 1017.1 0.0

Other Formats:

Comma delimited format used in spreadsheet applications
http://www.bom.gov.au/fwo/IDN60801/IDN60801.95748.axf

JavaScript Object Notation format (JSON) in row-major order
http://www.bom.gov.au/fwo/IDN60801/IDN60801.95748.json